createdAt,value
2022-11-24T00:00:34.024Z,1003.01
2022-11-24T00:01:34.003Z,1003.02
2022-11-24T00:02:34.089Z,1003.03
2022-11-24T00:03:34.510Z,1003.04
2022-11-24T00:04:34.364Z,1003.05
2022-11-24T00:05:33.952Z,1003.06
2022-11-24T00:06:33.938Z,1003.05
2022-11-24T00:07:34.023Z,1003.06
2022-11-24T00:08:33.987Z,1003.06
2022-11-24T00:09:33.950Z,1003.05
2022-11-24T00:10:33.891Z,1003.06
2022-11-24T00:11:33.978Z,1003.07
2022-11-24T00:12:33.899Z,1003.07
2022-11-24T00:13:33.936Z,1003.08
2022-11-24T00:14:34.027Z,1003.08
2022-11-24T00:15:33.861Z,1003.08
2022-11-24T00:16:33.933Z,1003.07
2022-11-24T00:17:33.836Z,1003.07
2022-11-24T00:18:33.948Z,1003.06
2022-11-24T00:19:33.822Z,1003.06
2022-11-24T00:20:33.812Z,1003.05
2022-11-24T00:21:33.788Z,1003.07
2022-11-24T00:22:33.768Z,1003.08
2022-11-24T00:23:33.801Z,1003.08
2022-11-24T00:24:34.248Z,1003.09
2022-11-24T00:25:33.755Z,1003.09
2022-11-24T00:26:33.734Z,1003.09
2022-11-24T00:27:33.752Z,1003.10
2022-11-24T00:28:33.739Z,1003.09
2022-11-24T00:29:33.710Z,1003.08
2022-11-24T00:30:33.840Z,1003.08
2022-11-24T00:31:33.804Z,1003.08
2022-11-24T00:32:33.689Z,1003.06
2022-11-24T00:33:33.680Z,1003.07
2022-11-24T00:34:33.879Z,1003.09
2022-11-24T00:35:33.697Z,1003.10
2022-11-24T00:36:33.631Z,1003.10
2022-11-24T00:37:33.614Z,1003.12
2022-11-24T00:38:33.621Z,1003.12
2022-11-24T00:39:33.628Z,1003.12
2022-11-24T00:40:35.081Z,1003.12
2022-11-24T00:41:33.604Z,1003.12
2022-11-24T00:42:33.629Z,1003.12
2022-11-24T00:43:33.609Z,1003.13
2022-11-24T00:44:33.880Z,1003.13
2022-11-24T00:45:33.617Z,1003.13
2022-11-24T00:46:33.637Z,1003.11
2022-11-24T00:47:33.653Z,1003.09
2022-11-24T00:48:33.548Z,1003.06
2022-11-24T00:49:33.517Z,1003.04
2022-11-24T00:50:33.486Z,1003.03
2022-11-24T00:51:33.499Z,1003.03
2022-11-24T00:52:33.492Z,1003.04
2022-11-24T00:53:33.599Z,1003.05
2022-11-24T00:54:33.699Z,1003.06
2022-11-24T00:55:33.430Z,1003.08
2022-11-24T00:56:33.456Z,1003.09
2022-11-24T00:57:33.418Z,1003.10
2022-11-24T00:58:33.417Z,1003.09
2022-11-24T00:59:33.430Z,1003.09
2022-11-24T01:00:33.384Z,1003.09
2022-11-24T01:01:33.442Z,1003.08
2022-11-24T01:02:33.444Z,1003.07
2022-11-24T01:03:33.362Z,1003.06
2022-11-24T01:04:33.674Z,1003.07
2022-11-24T01:05:33.325Z,1003.07
2022-11-24T01:06:33.351Z,1003.05
2022-11-24T01:07:33.353Z,1003.05
2022-11-24T01:08:33.332Z,1003.05
2022-11-24T01:09:33.283Z,1003.04
2022-11-24T01:10:33.303Z,1003.06
2022-11-24T01:11:33.273Z,1003.06
2022-11-24T01:12:33.279Z,1003.07
2022-11-24T01:13:33.384Z,1003.06
2022-11-24T01:14:33.648Z,1003.03
2022-11-24T01:15:33.266Z,1003.05
2022-11-24T01:16:33.232Z,1003.05
2022-11-24T01:17:33.206Z,1003.07
2022-11-24T01:18:33.261Z,1003.08
2022-11-24T01:19:33.193Z,1003.10
2022-11-24T01:20:33.230Z,1003.12
2022-11-24T01:21:33.168Z,1003.13
2022-11-24T01:22:33.184Z,1003.16
2022-11-24T01:23:33.162Z,1003.18
2022-11-24T01:24:33.543Z,1003.18
2022-11-24T01:25:33.131Z,1003.18
2022-11-24T01:26:33.149Z,1003.18
2022-11-24T01:27:33.156Z,1003.20
2022-11-24T01:28:33.124Z,1003.22
2022-11-24T01:29:33.079Z,1003.25
2022-11-24T01:30:33.122Z,1003.28
2022-11-24T01:31:33.068Z,1003.28
2022-11-24T01:32:33.096Z,1003.26
2022-11-24T01:33:33.057Z,1003.24
2022-11-24T01:34:33.340Z,1003.28
2022-11-24T01:35:33.020Z,1003.30
2022-11-24T01:36:33.024Z,1003.32
2022-11-24T01:37:33.006Z,1003.31
2022-11-24T01:38:33.006Z,1003.29
2022-11-24T01:39:33.013Z,1003.29
2022-11-24T01:40:32.971Z,1003.27
2022-11-24T01:41:32.964Z,1003.26
2022-11-24T01:42:32.976Z,1003.26
2022-11-24T01:43:32.968Z,1003.24
2022-11-24T01:44:33.440Z,1003.26
2022-11-24T01:45:32.930Z,1003.27
2022-11-24T01:46:32.989Z,1003.23
2022-11-24T01:47:32.889Z,1003.20
2022-11-24T01:48:32.915Z,1003.16
2022-11-24T01:49:32.893Z,1003.10
2022-11-24T01:50:32.929Z,1003.09
2022-11-24T01:51:32.861Z,1003.08
2022-11-24T01:52:32.856Z,1003.08
2022-11-24T01:53:32.863Z,1003.08
2022-11-24T01:54:33.071Z,1003.08
2022-11-24T01:55:32.824Z,1003.08
2022-11-24T01:56:32.806Z,1003.09
2022-11-24T01:57:32.810Z,1003.10
2022-11-24T01:58:32.830Z,1003.11
2022-11-24T01:59:32.813Z,1003.12
2022-11-24T02:00:32.776Z,1003.12
2022-11-24T02:01:32.776Z,1003.12
2022-11-24T02:02:32.848Z,1003.14
2022-11-24T02:03:32.750Z,1003.15
2022-11-24T02:04:33.097Z,1003.18
2022-11-24T02:05:32.708Z,1003.23
2022-11-24T02:06:32.704Z,1003.25
2022-11-24T02:07:32.806Z,1003.30
2022-11-24T02:08:32.721Z,1003.36
2022-11-24T02:09:32.665Z,1003.42
2022-11-24T02:10:32.674Z,1003.48
2022-11-24T02:11:32.651Z,1003.53
2022-11-24T02:12:32.640Z,1003.51
2022-11-24T02:13:32.623Z,1003.49
2022-11-24T02:14:32.834Z,1003.48
2022-11-24T02:15:32.665Z,1003.47
2022-11-24T02:16:32.639Z,1003.47
2022-11-24T02:17:32.578Z,1003.51
2022-11-24T02:18:32.616Z,1003.55
2022-11-24T02:19:32.552Z,1003.54
2022-11-24T02:20:32.595Z,1003.53
2022-11-24T02:21:32.544Z,1003.53
2022-11-24T02:22:32.580Z,1003.53
2022-11-24T02:23:32.555Z,1003.54
2022-11-24T02:24:32.886Z,1003.55
2022-11-24T02:25:32.504Z,1003.53
2022-11-24T02:26:32.503Z,1003.52
2022-11-24T02:27:32.473Z,1003.54
2022-11-24T02:28:32.550Z,1003.54
2022-11-24T02:29:32.498Z,1003.52
2022-11-24T02:30:32.517Z,1003.51
2022-11-24T02:31:32.514Z,1003.52
2022-11-24T02:32:32.538Z,1003.53
2022-11-24T02:33:32.456Z,1003.54
2022-11-24T02:34:32.886Z,1003.54
2022-11-24T02:35:32.408Z,1003.53
2022-11-24T02:36:32.463Z,1003.53
2022-11-24T02:37:32.362Z,1003.58
2022-11-24T02:38:32.448Z,1003.57
2022-11-24T02:39:32.349Z,1003.57
2022-11-24T02:40:32.367Z,1003.59
2022-11-24T02:41:32.358Z,1003.61
2022-11-24T02:42:32.322Z,1003.59
2022-11-24T02:43:32.374Z,1003.59
2022-11-24T02:44:32.636Z,1003.60
2022-11-24T02:45:32.406Z,1003.63
2022-11-24T02:46:32.380Z,1003.65
2022-11-24T02:47:32.301Z,1003.67
2022-11-24T02:48:32.294Z,1003.70
2022-11-24T02:49:32.235Z,1003.71
2022-11-24T02:50:32.430Z,1003.69
2022-11-24T02:51:32.244Z,1003.64
2022-11-24T02:52:32.255Z,1003.64
2022-11-24T02:53:32.214Z,1003.62
2022-11-24T02:54:32.744Z,1003.63
2022-11-24T02:55:32.172Z,1003.63
2022-11-24T02:56:32.195Z,1003.62
2022-11-24T02:57:32.154Z,1003.60
2022-11-24T02:58:32.188Z,1003.60
2022-11-24T02:59:32.159Z,1003.59
2022-11-24T03:00:32.134Z,1003.59
2022-11-24T03:01:32.265Z,1003.62
2022-11-24T03:02:32.190Z,1003.66
2022-11-24T03:03:32.100Z,1003.67
2022-11-24T03:04:32.609Z,1003.69
2022-11-24T03:05:32.077Z,1003.66
2022-11-24T03:06:32.137Z,1003.63
2022-11-24T03:07:32.181Z,1003.60
2022-11-24T03:08:32.072Z,1003.58
2022-11-24T03:09:32.036Z,1003.58
2022-11-24T03:10:32.059Z,1003.59
2022-11-24T03:11:32.039Z,1003.61
2022-11-24T03:12:32.059Z,1003.58
2022-11-24T03:13:32.019Z,1003.58
2022-11-24T03:14:32.414Z,1003.57
2022-11-24T03:15:31.991Z,1003.54
2022-11-24T03:16:31.989Z,1003.50
2022-11-24T03:17:31.953Z,1003.47
2022-11-24T03:18:32.014Z,1003.46
2022-11-24T03:19:31.950Z,1003.44
2022-11-24T03:20:31.936Z,1003.43
2022-11-24T03:21:31.922Z,1003.43
2022-11-24T03:22:31.961Z,1003.44
2022-11-24T03:23:31.909Z,1003.46
2022-11-24T03:24:32.332Z,1003.46
2022-11-24T03:25:31.866Z,1003.47
2022-11-24T03:26:31.975Z,1003.49
2022-11-24T03:27:31.855Z,1003.56
2022-11-24T03:28:31.879Z,1003.65
2022-11-24T03:29:31.882Z,1003.73
2022-11-24T03:30:31.866Z,1003.73
2022-11-24T03:31:32.050Z,1003.66
2022-11-24T03:32:31.800Z,1003.62
2022-11-24T03:33:31.842Z,1003.64
2022-11-24T03:34:32.228Z,1003.70
2022-11-24T03:35:31.812Z,1003.73
2022-11-24T03:36:31.755Z,1003.74
2022-11-24T03:37:31.742Z,1003.69
2022-11-24T03:38:31.831Z,1003.68
2022-11-24T03:39:31.799Z,1003.71
2022-11-24T03:40:31.808Z,1003.70
2022-11-24T03:41:31.756Z,1003.69
2022-11-24T03:42:31.684Z,1003.73
2022-11-24T03:43:31.712Z,1003.77
2022-11-24T03:44:31.942Z,1003.81
2022-11-24T03:45:46.083Z,1003.86
2022-11-24T03:46:31.768Z,1003.89
2022-11-24T03:47:31.723Z,1003.91
2022-11-24T03:48:31.652Z,1003.89
2022-11-24T03:49:31.911Z,1003.89
2022-11-24T03:50:31.634Z,1003.90
2022-11-24T03:51:31.619Z,1003.89
2022-11-24T03:52:31.580Z,1003.86
2022-11-24T03:53:31.630Z,1003.84
2022-11-24T03:54:31.850Z,1003.85
2022-11-24T03:55:31.606Z,1003.88
2022-11-24T03:56:31.554Z,1003.89
2022-11-24T03:57:31.536Z,1003.89
2022-11-24T03:58:31.535Z,1003.89
2022-11-24T03:59:31.509Z,1003.92
2022-11-24T04:00:31.552Z,1003.96
2022-11-24T04:01:31.515Z,1003.96
2022-11-24T04:02:31.516Z,1003.94
2022-11-24T04:03:31.483Z,1003.97
2022-11-24T04:04:31.729Z,1003.97
2022-11-24T04:05:31.451Z,1003.95
2022-11-24T04:06:31.437Z,1003.92
2022-11-24T04:07:31.488Z,1003.94
2022-11-24T04:08:31.461Z,1003.95
2022-11-24T04:09:31.402Z,1003.96
2022-11-24T04:10:31.411Z,1003.95
2022-11-24T04:11:31.427Z,1003.95
2022-11-24T04:12:31.387Z,1003.96
2022-11-24T04:13:31.381Z,1003.98
2022-11-24T04:14:31.599Z,1003.99
2022-11-24T04:15:31.449Z,1004.01
2022-11-24T04:16:31.380Z,1004.03
2022-11-24T04:17:31.357Z,1004.02
2022-11-24T04:18:31.351Z,1004.04
2022-11-24T04:19:31.299Z,1004.03
2022-11-24T04:20:31.286Z,1004.04
2022-11-24T04:21:31.286Z,1004.04
2022-11-24T04:22:31.275Z,1004.05
2022-11-24T04:23:31.300Z,1004.06
2022-11-24T04:24:31.633Z,1004.06
2022-11-24T04:25:31.283Z,1004.08
2022-11-24T04:26:31.255Z,1004.07
2022-11-24T04:27:31.224Z,1004.06
2022-11-24T04:28:31.250Z,1004.06
2022-11-24T04:29:31.197Z,1004.05
2022-11-24T04:30:31.190Z,1004.05
2022-11-24T04:31:31.266Z,1004.04
2022-11-24T04:32:31.168Z,1004.02
2022-11-24T04:33:31.192Z,1004.02
2022-11-24T04:34:31.511Z,1004.02
2022-11-24T04:35:31.137Z,1004.03
2022-11-24T04:36:31.132Z,1004.04
2022-11-24T04:37:31.157Z,1004.05
2022-11-24T04:39:19.404Z,1004.05
2022-11-24T04:39:31.093Z,1004.05
2022-11-24T04:40:31.086Z,1004.04
2022-11-24T04:41:31.075Z,1004.04
2022-11-24T04:42:31.088Z,1004.04
2022-11-24T04:43:31.867Z,1004.05
2022-11-24T04:44:31.153Z,1004.07
2022-11-24T04:45:31.030Z,1004.08
2022-11-24T04:46:31.101Z,1004.07
2022-11-24T04:47:31.039Z,1004.06
2022-11-24T04:48:31.001Z,1004.03
2022-11-24T04:49:31.020Z,1004.03
2022-11-24T04:50:31.012Z,1004.05
2022-11-24T04:51:30.971Z,1004.06
2022-11-24T04:52:30.965Z,1004.10
2022-11-24T04:53:30.944Z,1004.11
2022-11-24T04:54:31.075Z,1004.13
2022-11-24T04:55:30.924Z,1004.17
2022-11-24T04:56:30.972Z,1004.20
2022-11-24T04:57:30.914Z,1004.25
2022-11-24T04:58:30.889Z,1004.29
2022-11-24T04:59:30.907Z,1004.32
2022-11-24T05:00:30.878Z,1004.36
2022-11-24T05:01:30.886Z,1004.40
2022-11-24T05:02:30.882Z,1004.43
2022-11-24T05:03:30.853Z,1004.45
2022-11-24T05:04:30.943Z,1004.47
2022-11-24T05:05:30.830Z,1004.51
2022-11-24T05:06:30.909Z,1004.53
2022-11-24T05:07:30.834Z,1004.54
2022-11-24T05:08:30.782Z,1004.52
2022-11-24T05:09:48.207Z,1004.51
2022-11-24T05:10:30.794Z,1004.54
2022-11-24T05:11:30.769Z,1004.59
2022-11-24T05:12:30.738Z,1004.60
2022-11-24T05:13:30.750Z,1004.59
2022-11-24T05:14:30.749Z,1004.58
2022-11-24T05:15:30.734Z,1004.59
2022-11-24T05:16:30.826Z,1004.61
2022-11-24T05:17:30.801Z,1004.61
2022-11-24T05:18:30.679Z,1004.63
2022-11-24T05:19:32.458Z,1004.64
2022-11-24T05:20:30.687Z,1004.64
2022-11-24T05:21:30.684Z,1004.65
2022-11-24T05:22:30.650Z,1004.66
2022-11-24T05:23:30.643Z,1004.66
2022-11-24T05:24:30.801Z,1004.65
2022-11-24T05:25:30.637Z,1004.65
2022-11-24T05:26:30.601Z,1004.64
2022-11-24T05:27:30.599Z,1004.65
2022-11-24T05:28:30.594Z,1004.66
2022-11-24T05:29:30.612Z,1004.67
2022-11-24T05:30:30.579Z,1004.68
2022-11-24T05:31:30.588Z,1004.68
2022-11-24T05:32:30.562Z,1004.69
2022-11-24T05:33:30.591Z,1004.71
2022-11-24T05:34:30.538Z,1004.74
2022-11-24T05:35:30.548Z,1004.77
2022-11-24T05:36:30.505Z,1004.78
2022-11-24T05:37:30.596Z,1004.78
2022-11-24T05:38:30.505Z,1004.79
2022-11-24T05:39:30.569Z,1004.80
2022-11-24T05:40:30.461Z,1004.78
2022-11-24T05:41:30.508Z,1004.79
2022-11-24T05:42:30.438Z,1004.80
2022-11-24T05:43:30.430Z,1004.84
2022-11-24T05:44:30.429Z,1004.86
2022-11-24T05:45:30.400Z,1004.88
2022-11-24T05:46:30.443Z,1004.89
2022-11-24T05:47:30.424Z,1004.89
2022-11-24T05:48:30.362Z,1004.88
2022-11-24T05:49:30.530Z,1004.88
2022-11-24T05:50:30.347Z,1004.89
2022-11-24T05:51:30.829Z,1004.89
2022-11-24T05:52:30.343Z,1004.87
2022-11-24T05:53:30.505Z,1004.86
2022-11-24T05:54:30.314Z,1004.86
2022-11-24T05:55:30.300Z,1004.88
2022-11-24T05:56:30.382Z,1004.89
2022-11-24T05:57:30.284Z,1004.90
2022-11-24T05:58:30.289Z,1004.91
2022-11-24T05:59:30.311Z,1004.91
2022-11-24T06:00:30.234Z,1004.92
2022-11-24T06:01:30.437Z,1004.92
2022-11-24T06:02:30.344Z,1004.92
2022-11-24T06:03:30.319Z,1004.93
2022-11-24T06:04:30.240Z,1004.95
2022-11-24T06:05:30.204Z,1004.96
2022-11-24T06:06:30.283Z,1004.97
2022-11-24T06:07:30.240Z,1004.98
2022-11-24T06:08:31.328Z,1005.00
2022-11-24T06:09:30.175Z,1005.00
2022-11-24T06:10:30.216Z,1005.00
2022-11-24T06:11:30.090Z,1005.00
2022-11-24T06:12:30.082Z,1005.01
2022-11-24T06:13:30.162Z,1005.00
2022-11-24T06:14:30.098Z,1005.00
2022-11-24T06:15:30.054Z,1005.03
2022-11-24T06:16:30.128Z,1005.04
2022-11-24T06:17:30.018Z,1005.06
2022-11-24T06:18:30.001Z,1005.09
2022-11-24T06:19:30.017Z,1005.11
2022-11-24T06:20:32.839Z,1005.14
2022-11-24T06:21:29.979Z,1005.15
2022-11-24T06:22:29.944Z,1005.17
2022-11-24T06:23:29.941Z,1005.19
2022-11-24T06:24:10.185Z,1005.20
2022-11-24T06:25:10.335Z,1005.23
2022-11-24T06:26:10.271Z,1005.27
2022-11-24T06:27:10.967Z,1005.30
2022-11-24T06:28:10.251Z,1005.31
2022-11-24T06:29:10.843Z,1005.34
2022-11-24T06:30:10.285Z,1005.35
2022-11-24T06:31:10.352Z,1005.36
2022-11-24T06:32:10.293Z,1005.33
2022-11-24T06:33:10.268Z,1005.34
2022-11-24T06:34:10.306Z,1005.33
2022-11-24T06:35:10.237Z,1005.33
2022-11-24T06:36:10.174Z,1005.34
2022-11-24T06:37:10.170Z,1005.34
2022-11-24T06:38:10.284Z,1005.36
2022-11-24T06:39:10.284Z,1005.38
2022-11-24T06:40:10.136Z,1005.38
2022-11-24T06:41:10.734Z,1005.40
2022-11-24T06:42:10.157Z,1005.40
2022-11-24T06:43:10.132Z,1005.41
2022-11-24T06:44:10.140Z,1005.43
2022-11-24T06:45:10.083Z,1005.44
2022-11-24T06:46:10.240Z,1005.45
2022-11-24T06:47:10.069Z,1005.45
2022-11-24T06:48:10.055Z,1005.45
2022-11-24T06:49:10.099Z,1005.44
2022-11-24T06:50:10.024Z,1005.43
2022-11-24T06:51:10.204Z,1005.43
2022-11-24T06:52:10.030Z,1005.44
2022-11-24T06:53:09.995Z,1005.45
2022-11-24T06:54:10.026Z,1005.47
2022-11-24T06:55:09.990Z,1005.46
2022-11-24T06:56:15.649Z,1005.47
2022-11-24T06:57:09.978Z,1005.47
2022-11-24T06:58:09.995Z,1005.48
2022-11-24T06:59:09.932Z,1005.48
2022-11-24T07:00:09.946Z,1005.49
2022-11-24T07:01:10.015Z,1005.48
2022-11-24T07:02:09.950Z,1005.49
2022-11-24T07:03:09.947Z,1005.50
2022-11-24T07:04:09.941Z,1005.50
2022-11-24T07:05:09.899Z,1005.51
2022-11-24T07:06:09.876Z,1005.52
2022-11-24T07:07:09.930Z,1005.53
2022-11-24T07:08:13.225Z,1005.54
2022-11-24T07:09:09.870Z,1005.55
2022-11-24T07:10:09.864Z,1005.55
2022-11-24T07:11:10.820Z,1005.56
2022-11-24T07:12:09.796Z,1005.57
2022-11-24T07:13:09.785Z,1005.58
2022-11-24T07:14:09.804Z,1005.60
2022-11-24T07:15:09.777Z,1005.63
2022-11-24T07:16:09.787Z,1005.65
2022-11-24T07:17:09.757Z,1005.66
2022-11-24T07:18:09.732Z,1005.67
2022-11-24T07:19:09.782Z,1005.68
2022-11-24T07:20:09.732Z,1005.70
2022-11-24T07:21:09.712Z,1005.69
2022-11-24T07:22:09.870Z,1005.68
2022-11-24T07:23:09.706Z,1005.69
2022-11-24T07:24:09.700Z,1005.67
2022-11-24T07:25:09.688Z,1005.68
2022-11-24T07:26:09.783Z,1005.68
2022-11-24T07:27:09.646Z,1005.68
2022-11-24T07:28:09.633Z,1005.70
2022-11-24T07:29:10.165Z,1005.71
2022-11-24T07:30:09.616Z,1005.71
2022-11-24T07:31:09.601Z,1005.71
2022-11-24T07:32:09.619Z,1005.71
2022-11-24T07:33:09.581Z,1005.72
2022-11-24T07:34:09.772Z,1005.72
2022-11-24T07:35:09.569Z,1005.73
2022-11-24T07:36:09.563Z,1005.75
2022-11-24T07:37:09.566Z,1005.75
2022-11-24T07:38:09.522Z,1005.78
2022-11-24T07:39:09.520Z,1005.78
2022-11-24T07:40:09.535Z,1005.80
2022-11-24T07:41:09.529Z,1005.81
2022-11-24T07:42:09.486Z,1005.82
2022-11-24T07:43:09.488Z,1005.84
2022-11-24T07:44:09.465Z,1005.86
2022-11-24T07:45:09.512Z,1005.89
2022-11-24T07:46:09.473Z,1005.91
2022-11-24T07:47:09.451Z,1005.92
2022-11-24T07:48:09.419Z,1005.94
2022-11-24T07:49:09.412Z,1005.94
2022-11-24T07:50:09.425Z,1005.94
2022-11-24T07:51:09.394Z,1005.96
2022-11-24T07:52:09.387Z,1005.94
2022-11-24T07:53:09.420Z,1005.93
2022-11-24T07:54:09.369Z,1005.94
2022-11-24T07:55:09.368Z,1005.96
2022-11-24T07:56:09.335Z,1005.97
2022-11-24T07:57:09.331Z,1005.98
2022-11-24T07:58:09.329Z,1005.98
2022-11-24T07:59:09.316Z,1005.98
2022-11-24T08:01:22.088Z,1005.99
2022-11-24T08:02:22.579Z,1005.98
2022-11-24T08:03:21.524Z,1005.96
2022-11-24T08:04:20.615Z,1005.96
2022-11-24T08:05:20.644Z,1005.95
2022-11-24T08:06:27.196Z,1005.95
2022-11-24T08:07:20.610Z,1005.96
2022-11-24T08:08:20.636Z,1005.96
2022-11-24T08:09:20.649Z,1005.96
2022-11-24T08:10:20.597Z,1005.96
2022-11-24T08:11:20.624Z,1005.97
2022-11-24T08:12:20.536Z,1005.96
2022-11-24T08:13:20.523Z,1005.97
2022-11-24T08:14:20.563Z,1005.97
2022-11-24T08:15:20.563Z,1005.97
2022-11-24T08:16:20.656Z,1005.98
2022-11-24T08:17:20.472Z,1005.97
2022-11-24T08:18:20.492Z,1005.97
2022-11-24T08:19:20.455Z,1005.97
2022-11-24T08:20:20.457Z,1005.97
2022-11-24T08:21:20.488Z,1005.98
2022-11-24T08:22:20.433Z,1005.98
2022-11-24T08:23:20.410Z,1005.98
2022-11-24T08:24:20.520Z,1005.98
2022-11-24T08:25:20.396Z,1005.99
2022-11-24T08:26:20.388Z,1006.00
2022-11-24T08:27:20.371Z,1006.01
2022-11-24T08:28:20.383Z,1006.03
2022-11-24T08:29:20.378Z,1006.04
2022-11-24T08:30:20.370Z,1006.05
2022-11-24T08:31:20.375Z,1006.06
2022-11-24T08:32:22.450Z,1006.09
2022-11-24T08:33:20.312Z,1006.14
2022-11-24T08:34:20.336Z,1006.15
2022-11-24T08:35:20.302Z,1006.15
2022-11-24T08:36:20.304Z,1006.14
2022-11-24T08:37:20.294Z,1006.14
2022-11-24T08:38:20.359Z,1006.16
2022-11-24T08:39:20.296Z,1006.16
2022-11-24T08:40:20.280Z,1006.18
2022-11-24T08:41:20.242Z,1006.18
2022-11-24T08:42:20.236Z,1006.17
2022-11-24T08:43:20.196Z,1006.17
2022-11-24T08:44:20.239Z,1006.19
2022-11-24T08:45:21.928Z,1006.19
2022-11-24T08:46:20.243Z,1006.16
2022-11-24T08:47:20.177Z,1006.16
2022-11-24T08:48:20.229Z,1006.17
2022-11-24T08:49:20.135Z,1006.16
2022-11-24T08:50:20.184Z,1006.16
2022-11-24T08:51:20.165Z,1006.15
2022-11-24T08:52:20.134Z,1006.16
2022-11-24T08:53:20.110Z,1006.17
2022-11-24T08:54:20.108Z,1006.21
2022-11-24T08:55:20.195Z,1006.24
2022-11-24T08:56:20.099Z,1006.28
2022-11-24T08:57:21.915Z,1006.30
2022-11-24T08:58:20.114Z,1006.29
2022-11-24T08:59:20.108Z,1006.30
2022-11-24T09:00:20.052Z,1006.28
2022-11-24T09:01:20.056Z,1006.27
2022-11-24T09:02:20.008Z,1006.24
2022-11-24T09:03:20.002Z,1006.24
2022-11-24T09:04:20.066Z,1006.24
2022-11-24T09:05:50.053Z,1006.23
2022-11-24T09:06:20.031Z,1006.22
2022-11-24T09:07:19.978Z,1006.22
2022-11-24T09:08:19.972Z,1006.22
2022-11-24T09:09:19.962Z,1006.22
2022-11-24T09:10:19.977Z,1006.20
2022-11-24T09:11:19.931Z,1006.20
2022-11-24T09:12:20.043Z,1006.21
2022-11-24T09:13:19.892Z,1006.24
2022-11-24T09:14:19.875Z,1006.27
2022-11-24T09:15:19.912Z,1006.30
2022-11-24T09:16:19.963Z,1006.31
2022-11-24T09:17:19.846Z,1006.30
2022-11-24T09:18:19.831Z,1006.30
2022-11-24T09:19:19.824Z,1006.32
2022-11-24T09:20:19.829Z,1006.35
2022-11-24T09:21:19.823Z,1006.38
2022-11-24T09:22:19.795Z,1006.40
2022-11-24T09:23:19.781Z,1006.42
2022-11-24T09:24:19.827Z,1006.44
2022-11-24T09:25:19.775Z,1006.47
2022-11-24T09:26:19.775Z,1006.49
2022-11-24T09:27:19.733Z,1006.51
2022-11-24T09:28:19.764Z,1006.53
2022-11-24T09:29:19.750Z,1006.54
2022-11-24T09:30:19.761Z,1006.54
2022-11-24T09:31:19.785Z,1006.56
2022-11-24T09:32:19.711Z,1006.59
2022-11-24T09:33:19.747Z,1006.60
2022-11-24T09:34:19.830Z,1006.60
2022-11-24T09:35:19.702Z,1006.58
2022-11-24T09:36:19.673Z,1006.58
2022-11-24T09:37:19.698Z,1006.57
2022-11-24T09:38:19.669Z,1006.56
2022-11-24T09:39:19.669Z,1006.54
2022-11-24T09:40:19.667Z,1006.54
2022-11-24T09:41:19.610Z,1006.54
2022-11-24T09:42:19.715Z,1006.54
2022-11-24T09:43:19.607Z,1006.53
2022-11-24T09:44:19.659Z,1006.54
2022-11-24T09:45:35.380Z,1006.55
2022-11-24T09:46:19.670Z,1006.56
2022-11-24T09:47:19.561Z,1006.57
2022-11-24T09:48:19.552Z,1006.59
2022-11-24T09:49:19.572Z,1006.61
2022-11-24T09:50:19.709Z,1006.61
2022-11-24T09:51:19.499Z,1006.61
2022-11-24T09:52:19.486Z,1006.60
2022-11-24T09:53:19.468Z,1006.59
2022-11-24T09:54:19.460Z,1006.58
2022-11-24T09:55:19.476Z,1006.56
2022-11-24T09:56:19.447Z,1006.57
2022-11-24T09:57:19.432Z,1006.58
2022-11-24T09:58:19.432Z,1006.60
2022-11-24T09:59:19.402Z,1006.64
2022-11-24T10:00:19.525Z,1006.70
2022-11-24T10:01:19.435Z,1006.76
2022-11-24T10:02:19.407Z,1006.77
2022-11-24T10:03:19.428Z,1006.76
2022-11-24T10:04:19.427Z,1006.77
2022-11-24T10:05:19.375Z,1006.76
2022-11-24T10:06:19.391Z,1006.77
2022-11-24T10:07:19.452Z,1006.76
2022-11-24T10:08:19.341Z,1006.76
2022-11-24T10:09:19.316Z,1006.75
2022-11-24T10:10:24.491Z,1006.73
2022-11-24T10:11:19.335Z,1006.73
2022-11-24T10:12:19.369Z,1006.73
2022-11-24T10:13:19.331Z,1006.75
2022-11-24T10:14:19.287Z,1006.76
2022-11-24T10:15:19.301Z,1006.77
2022-11-24T10:16:19.366Z,1006.76
2022-11-24T10:17:19.258Z,1006.74
2022-11-24T10:18:19.239Z,1006.75
2022-11-24T10:19:19.233Z,1006.75
2022-11-24T10:20:19.242Z,1006.78
2022-11-24T10:21:19.211Z,1006.79
2022-11-24T10:22:19.202Z,1006.77
2022-11-24T10:23:19.182Z,1006.76
2022-11-24T10:24:19.194Z,1006.75
2022-11-24T10:25:19.159Z,1006.74
2022-11-24T10:26:19.205Z,1006.74
2022-11-24T10:27:19.144Z,1006.75
2022-11-24T10:28:19.186Z,1006.76
2022-11-24T10:29:19.154Z,1006.75
2022-11-24T10:30:19.152Z,1006.76
2022-11-24T10:31:19.201Z,1006.76
2022-11-24T10:32:19.107Z,1006.76
2022-11-24T10:33:19.101Z,1006.77
2022-11-24T10:34:19.071Z,1006.76
2022-11-24T10:35:19.069Z,1006.76
2022-11-24T10:36:19.137Z,1006.77
2022-11-24T10:37:19.062Z,1006.79
2022-11-24T10:38:19.046Z,1006.81
2022-11-24T10:39:19.080Z,1006.82
2022-11-24T10:40:48.595Z,1006.83
2022-11-24T10:41:19.018Z,1006.82
2022-11-24T10:42:18.992Z,1006.82
2022-11-24T10:43:19.007Z,1006.79
2022-11-24T10:44:18.968Z,1006.78
2022-11-24T10:45:18.936Z,1006.78
2022-11-24T10:46:19.096Z,1006.79
2022-11-24T10:47:18.912Z,1006.80
2022-11-24T10:48:18.917Z,1006.78
2022-11-24T10:49:18.914Z,1006.76
2022-11-24T10:50:18.889Z,1006.76
2022-11-24T10:51:18.897Z,1006.77
2022-11-24T10:52:18.878Z,1006.75
2022-11-24T10:53:18.857Z,1006.74
2022-11-24T10:54:18.864Z,1006.74
2022-11-24T10:55:21.553Z,1006.74
2022-11-24T10:56:18.858Z,1006.72
2022-11-24T10:57:18.810Z,1006.70
2022-11-24T10:58:18.816Z,1006.70
2022-11-24T10:59:18.837Z,1006.70
2022-11-24T11:00:18.798Z,1006.72
2022-11-24T11:01:18.826Z,1006.74
2022-11-24T11:02:18.883Z,1006.75
2022-11-24T11:03:18.869Z,1006.75
2022-11-24T11:04:18.749Z,1006.75
2022-11-24T11:05:18.730Z,1006.75
2022-11-24T11:06:18.749Z,1006.76
2022-11-24T11:07:18.803Z,1006.76
2022-11-24T11:08:18.760Z,1006.76
2022-11-24T11:09:18.703Z,1006.78
2022-11-24T11:10:18.700Z,1006.79
2022-11-24T11:11:18.691Z,1006.81
2022-11-24T11:12:42.703Z,1006.82
2022-11-24T11:13:18.668Z,1006.83
2022-11-24T11:14:18.647Z,1006.84
2022-11-24T11:15:18.631Z,1006.86
2022-11-24T11:16:18.697Z,1006.88
2022-11-24T11:17:18.609Z,1006.89
2022-11-24T11:18:18.605Z,1006.91
2022-11-24T11:19:47.500Z,1006.93
2022-11-24T11:20:18.610Z,1006.95
2022-11-24T11:21:18.582Z,1006.96
2022-11-24T11:22:18.562Z,1006.97
2022-11-24T11:23:18.553Z,1006.98
2022-11-24T11:24:18.547Z,1006.99
2022-11-24T11:25:18.554Z,1006.98
2022-11-24T11:26:18.528Z,1006.96
2022-11-24T11:27:18.512Z,1006.93
2022-11-24T11:28:18.964Z,1006.90
2022-11-24T11:31:21.099Z,1006.87
2022-11-24T11:34:26.678Z,1006.82
2022-11-24T11:35:18.454Z,1006.80
2022-11-24T11:36:18.433Z,1006.79
2022-11-24T11:37:18.417Z,1006.79
2022-11-24T11:38:18.437Z,1006.79
2022-11-24T11:39:18.389Z,1006.79
2022-11-24T11:40:18.376Z,1006.78
2022-11-24T11:41:18.387Z,1006.79
2022-11-24T11:42:45.179Z,1006.79
2022-11-24T11:43:18.373Z,1006.79
2022-11-24T11:44:18.349Z,1006.80
2022-11-24T11:45:18.425Z,1006.81
2022-11-24T11:46:18.550Z,1006.82
2022-11-24T11:47:18.314Z,1006.83
2022-11-24T11:48:18.332Z,1006.83
2022-11-24T11:49:18.287Z,1006.82
2022-11-24T11:50:18.313Z,1006.83
2022-11-24T11:51:25.571Z,1006.84
2022-11-24T11:52:18.259Z,1006.86
2022-11-24T11:53:18.242Z,1006.87
2022-11-24T11:54:18.237Z,1006.86
2022-11-24T11:55:18.224Z,1006.84
2022-11-24T11:56:18.228Z,1006.83
2022-11-24T11:57:18.215Z,1006.84
2022-11-24T11:58:18.200Z,1006.85
2022-11-24T11:59:18.187Z,1006.86
2022-11-24T12:00:18.222Z,1006.86
2022-11-24T12:01:18.172Z,1006.85
2022-11-24T12:02:18.195Z,1006.85
2022-11-24T12:03:18.293Z,1006.86
2022-11-24T12:04:18.166Z,1006.87
2022-11-24T12:05:18.141Z,1006.89
2022-11-24T12:06:18.124Z,1006.91
2022-11-24T12:07:18.222Z,1006.92
2022-11-24T12:08:21.270Z,1006.90
2022-11-24T12:09:20.928Z,1006.88
2022-11-24T12:10:18.069Z,1006.87